Latest Coastal Weather Observations for Bundaberg

IDQ60701

Issued at 8:25 am EST Thursday 24 July 2014 (issued every 10 minutes, with the page automatically refreshed every 10 minutes)

About coastal observations | Map of coastal stations | Coastal observations for QLD | Marine services | Other Formats
Station Details ID: 039128 Name: BUNDABERG AERO Lat: -24.91 Lon: 152.32 Height: 30.82 m
Data from the previous 72 hours. | See also: Recent months at Bundaberg
Date/Time
EST
Temp

°C
Wind Pressure Rain
since 9am
mm
Weather Cloud Vis
km
Sea
Height
m
Swell
Dir
 
Speed
knots
Gust
knots
hPa Trend Height
m
Period
s
Dir
24/08:00am 13.7 S 6 9 1022.2 - 0.0 - - 10 - - - -
24/07:30am 12.1 S 5 7 1022.0 - 0.0 - - 10 - - - -
24/07:00am 10.2 S 4 6 1021.6 - 0.0 - - 10 - - - -
24/06:30am 10.8 S 6 8 1021.2 - 0.0 - - 10 - - - -
24/06:00am 10.7 S 6 7 1021.0 - 0.0 - - 10 - - - -
24/05:30am 11.0 S 7 9 1020.9 - 0.0 - - 10 - - - -
24/05:00am 11.2 S 7 9 1020.8 - 0.0 - - 10 - - - -
24/04:30am 10.9 SSW 6 7 1020.6 - 0.0 - - 10 - - - -
24/04:00am 10.8 S 6 8 1020.5 - 0.0 - - 10 - - - -
24/03:30am 11.6 S 7 9 1020.5 - 0.0 - - 10 - - - -
24/03:00am 11.4 S 6 9 1020.6 - 0.0 - - 10 - - - -
24/02:30am 11.9 S 7 9 1020.7 - 0.0 - - 10 - - - -
24/02:00am 11.7 S 6 8 1020.8 - 0.0 - - 10 - - - -
24/01:30am 11.9 S 7 9 1021.0 - 0.0 - - 10 - - - -
24/01:00am 11.9 S 8 10 1021.1 - 0.0 - - 10 - - - -
24/12:30am 11.7 S 8 9 1021.0 - 0.0 - - 10 - - - -
24/12:00am 11.8 S 7 9 1021.0 - 0.0 - - 10 - - - -
 
Date/Time
EST
Temp

°C
Wind Pressure Rain
since 9am
mm
Weather Cloud Vis
km
Sea
Height
m
Swell
Dir
 
Speed
knots
Gust
knots
hPa Trend Height
m
Period
s
Dir
23/11:30pm 12.3 S 7 9 1021.3 - 0.0 - - 10 - - - -
23/11:00pm 11.9 S 6 8 1021.5 - 0.0 - - 10 - - - -
23/10:30pm 12.1 S 5 7 1021.5 - 0.0 - - 10 - - - -
23/10:00pm 13.0 SSE 6 7 1021.3 - 0.0 - - 10 - - - -
23/09:30pm 12.7 SSE 5 8 1021.2 - 0.0 - - 10 - - - -
23/09:00pm 13.1 SSE 6 8 1021.2 - 0.0 - - 10 - - - -
23/08:30pm 14.1 SE 7 8 1021.4 - 0.0 - - 10 - - - -
23/08:00pm 14.4 ESE 7 9 1021.3 - 0.0 - - 10 - - - -
23/07:30pm 15.7 ESE 8 11 1020.9 - 0.0 - - 10 - - - -
23/07:00pm 16.6 ESE 11 15 1020.4 - 0.0 - - 10 - - - -
23/06:30pm 16.8 ESE 11 15 1020.0 - 0.0 - - 10 - - - -
23/06:00pm 17.2 ESE 12 16 1019.8 - 0.0 - - 10 - - - -
23/05:30pm 17.8 E 12 17 1019.7 - 0.0 - - 10 - - - -
23/05:00pm 18.5 E 11 15 1019.6 - 0.0 - - 10 - - - -
23/04:30pm 18.9 E 14 18 1019.3 - 0.0 - - 10 - - - -
23/04:00pm 20.2 E 14 17 1019.1 - 0.0 - - 10 - - - -
23/03:30pm 21.2 E 12 16 1018.9 - 0.0 - - 10 - - - -
23/03:00pm 21.6 ESE 13 18 1018.7 - 0.0 - - 10 - - - -
23/02:30pm 22.0 E 11 15 1018.9 - 0.0 - Partly cloudy 10 - - - -
23/02:00pm 22.4 ESE 13 15 1019.1 - 0.0 - Partly cloudy 10 - - - -
23/01:30pm 21.0 E 8 13 1019.5 - 0.0 - Partly cloudy 10 - - - -
23/01:00pm 22.3 E 6 10 1019.8 - 0.0 - Partly cloudy 10 - - - -
23/12:30pm 20.5 E 7 10 1020.2 - 0.0 - Partly cloudy 10 - - - -
23/12:00pm 21.1 S 7 12 1020.1 - 0.0 - Cloudy 10 - - - -
23/11:30am 22.1 SE 9 13 1021.1 - 0.0 - Partly cloudy 10 - - - -
23/11:00am 20.5 SSE 9 15 1021.6 - 0.0 - Partly cloudy 10 - - - -
23/10:30am 20.5 SE 9 13 1021.9 - 0.0 - Partly cloudy 10 - - - -
23/10:00am 19.0 SSE 8 12 1022.4 - 0.0 - - 10 - - - -
23/09:30am 18.2 SSE 9 11 1022.5 - 0.0 - - 10 - - - -
23/09:00am 16.8 S 9 12 1022.5 - 0.0 - - 10 - - - -
23/08:30am 15.4 S 8 11 1022.1 - 0.0 - - 10 - - - -
23/08:00am 13.9 S 7 10 1021.9 - 0.0 - - 10 - - - -
23/07:30am 12.4 S 7 9 1021.3 - 0.0 - - 10 - - - -
23/07:00am 11.3 S 6 9 1021.0 - 0.0 - - 10 - - - -
23/06:30am 10.9 S 7 9 1020.7 - 0.0 - - 10 - - - -
23/06:00am 10.7 S 6 9 1020.6 - 0.0 - - 10 - - - -
23/05:30am 11.1 S 7 9 1020.2 - 0.0 - - 10 - - - -
23/05:00am 11.3 S 7 9 1019.9 - 0.0 - - 10 - - - -
23/04:30am 11.5 S 7 10 1019.7 - 0.0 - - 10 - - - -
23/04:00am 10.7 S 7 9 1019.4 - 0.0 - - 10 - - - -
23/03:30am 10.8 S 6 8 1019.5 - 0.0 - - 10 - - - -
23/03:00am 11.2 S 6 9 1019.7 - 0.0 - - 10 - - - -
23/02:30am 11.4 S 6 7 1019.7 - 0.0 - - 10 - - - -
23/02:00am 11.9 S 6 8 1019.8 - 0.0 - - 10 - - - -
23/01:30am 12.2 S 6 8 1020.0 - 0.0 - - 10 - - - -
23/01:00am 12.0 S 7 9 1020.4 - 0.0 - - 10 - - - -
23/12:30am 12.5 S 7 9 1020.5 - 0.0 - Partly cloudy 10 - - - -
23/12:00am 12.4 S 7 8 1020.5 - 0.0 - - 10 - - - -
 
Date/Time
EST
Temp

°C
Wind Pressure Rain
since 9am
mm
Weather Cloud Vis
km
Sea
Height
m
Swell
Dir
 
Speed
knots
Gust
knots
hPa Trend Height
m
Period
s
Dir
22/11:30pm 12.4 S 6 8 1020.5 - 0.0 - - 10 - - - -
22/11:00pm 12.8 S 6 9 1020.5 - 0.0 - - 10 - - - -
22/10:30pm 13.1 S 7 8 1020.7 - 0.0 - - 10 - - - -
22/10:00pm 12.6 S 4 6 1020.7 - 0.0 - - 10 - - - -
22/09:30pm 13.2 S 5 7 1020.8 - 0.0 - - 10 - - - -
22/09:00pm 13.6 SSE 4 5 1020.6 - 0.0 - - 10 - - - -
22/08:30pm 13.5 SSE 5 6 1020.6 - 0.0 - - 10 - - - -
22/08:13pm 13.4 SSE 4 5 1020.5 - 0.0 - - 10 - - - -
22/08:00pm 14.0 SE 4 5 1020.3 - 0.0 - - 5 - - - -
22/07:55pm 14.3 SE 3 5 1020.3 - 0.0 - - 5 - - - -
22/07:30pm 13.2 SE 2 4 1020.2 - 0.0 - - 10 - - - -
22/07:00pm 14.8 SE 2 5 1019.9 - 0.0 - Partly cloudy 10 - - - -
22/06:30pm 15.5 SE 3 4 1019.5 - 0.0 - - 10 - - - -
22/06:00pm 15.9 E 4 5 1019.1 - 0.0 - - 10 - - - -
22/05:30pm 17.3 E 7 10 1018.7 - 0.0 - - 10 - - - -
22/05:00pm 18.9 E 9 13 1018.2 - 0.0 - - 10 - - - -
22/04:30pm 20.0 E 11 15 1018.0 - 0.0 - - 10 - - - -
22/04:00pm 20.1 E 11 14 1017.9 - 0.0 - Partly cloudy 10 - - - -
22/03:30pm 20.5 E 11 14 1017.8 - 0.0 - Partly cloudy 10 - - - -
22/03:00pm 21.6 E 11 15 1017.6 - 0.0 - - 10 - - - -
22/02:30pm 21.8 E 11 15 1017.7 - 0.0 - Partly cloudy 10 - - - -
22/02:00pm 20.3 ESE 10 14 1018.0 - 0.0 - Partly cloudy 10 - - - -
22/01:30pm 22.3 ENE 9 12 1018.2 - 0.0 - Partly cloudy 10 - - - -
22/01:00pm 21.6 ESE 9 11 1018.5 - 0.0 - Partly cloudy 10 - - - -
22/12:30pm 21.5 SE 9 13 1019.0 - 0.0 - Partly cloudy 10 - - - -
22/12:00pm 22.5 S 6 10 1019.7 - 0.0 - Partly cloudy 10 - - - -
22/11:30am 21.3 SE 7 11 1020.3 - 0.0 - Partly cloudy 10 - - - -
22/11:00am 21.1 SSE 7 11 1020.7 - 0.0 - - 10 - - - -
22/10:30am 20.7 S 8 11 1021.2 - 0.0 - Partly cloudy 10 - - - -
22/10:00am 19.7 S 8 12 1021.6 - 0.0 - Partly cloudy 10 - - - -
22/09:30am 18.2 S 9 12 1021.8 - 0.0 - - 10 - - - -
22/09:00am 16.8 S 8 10 1021.8 - 0.0 - - 10 - - - -
22/08:30am 15.9 SSW 6 8 1021.6 - 0.0 - - 10 - - - -
22/08:00am 14.0 SSW 5 7 1021.5 - 0.0 - - 10 - - - -
22/07:30am 13.1 SSW 5 7 1021.3 - 0.0 - - 10 - - - -
22/07:00am 11.9 SSW 5 7 1020.9 - 0.0 - - 10 - - - -
22/06:30am 11.6 SSW 6 8 1020.8 - 0.0 - - 10 - - - -
22/06:00am 11.6 SSW 6 8 1020.6 - 0.0 - - 10 - - - -
22/05:30am 11.9 SSW 7 8 1020.3 - 0.0 - - 10 - - - -
22/05:00am 11.9 SSW 7 8 1020.1 - 0.0 - - 10 - - - -
22/04:30am 11.5 S 7 8 1020.0 - 0.0 - - 10 - - - -
22/04:00am 11.9 S 6 8 1019.8 - 0.0 - - 10 - - - -
22/03:30am 12.0 S 6 8 1019.9 - 0.0 - - 10 - - - -
22/03:00am 12.3 SSW 6 8 1020.0 - 0.0 - - 10 - - - -
22/02:30am 12.5 SSW 6 8 1020.1 - 0.0 - - 10 - - - -
22/02:00am 12.5 S 6 7 1020.2 - 0.0 - - 10 - - - -
22/01:30am 12.6 S 5 7 1020.5 - 0.0 - - 10 - - - -
22/01:00am 12.9 SSE 5 7 1020.6 - 0.0 - - 10 - - - -
22/12:30am 13.1 S 6 8 1020.7 - 0.0 - - 10 - - - -
22/12:00am 13.6 S 6 8 1020.9 - 0.0 - Mostly clear 10 - - - -
 
Date/Time
EST
Temp

°C
Wind Pressure Rain
since 9am
mm
Weather Cloud Vis
km
Sea
Height
m
Swell
Dir
 
Speed
knots
Gust
knots
hPa Trend Height
m
Period
s
Dir
21/11:30pm 14.3 S 6 8 1021.1 - 0.0 - Partly cloudy 10 - - - -
21/11:00pm 15.2 S 6 8 1021.3 - 0.0 - Cloudy 10 - - - -
21/10:30pm 15.4 S 6 9 1021.4 - 0.0 - Cloudy 10 - - - -
21/10:00pm 14.9 S 6 7 1021.3 - 0.0 - Cloudy 10 - - - -
21/09:30pm 15.1 S 5 7 1021.4 - 0.0 - Cloudy 10 - - - -
21/09:00pm 14.8 S 5 7 1021.3 - 0.0 - Cloudy 10 - - - -
21/08:30pm 14.9 S 4 6 1021.3 - 0.0 - Partly cloudy 10 - - - -
21/08:00pm 15.6 SE 5 7 1021.2 - 0.0 - Partly cloudy 10 - - - -
21/07:30pm 15.9 SE 6 6 1021.0 - 0.0 - Partly cloudy 10 - - - -
21/07:00pm 15.9 ESE 6 7 1020.8 - 0.0 - Partly cloudy 10 - - - -
21/06:30pm 16.4 ESE 8 9 1020.2 - 0.0 - - 10 - - - -
21/06:00pm 17.6 E 10 13 1019.8 - 0.0 - - 10 - - - -
21/05:30pm 17.7 ESE 9 12 1019.5 - 0.0 - - 10 - - - -
21/05:00pm 18.8 E 11 15 1019.3 - 0.0 - - 10 - - - -
21/04:30pm 19.9 E 12 17 1019.2 - 0.0 - - 10 - - - -
21/04:00pm 20.9 E 13 16 1019.0 - 0.0 - - 10 - - - -
21/03:30pm 21.9 E 12 16 1018.7 - 0.0 - - 10 - - - -
21/03:00pm 22.7 ESE 11 15 1018.6 - 0.0 - - 10 - - - -
21/02:30pm 23.3 E 10 14 1018.6 - 0.0 - - 10 - - - -
21/02:00pm 23.2 ESE 11 15 1018.8 - 0.0 - Partly cloudy 10 - - - -
21/01:30pm 21.9 ESE 9 13 1019.0 - 0.0 - Partly cloudy 10 - - - -
21/01:00pm 21.9 SE 6 11 1019.2 - 0.0 - Partly cloudy 10 - - - -
21/12:30pm 21.9 ESE 8 13 1019.6 - 0.0 - Partly cloudy 10 - - - -
21/12:00pm 21.8 ESE 8 13 1020.2 - 0.0 - Partly cloudy 10 - - - -
21/11:30am 22.0 SSE 8 14 1020.7 - 0.0 - Partly cloudy 10 - - - -
21/11:00am 21.1 SE 9 14 1021.2 - 0.0 - - 10 - - - -
21/10:30am 20.7 SSE 10 13 1021.5 - 0.0 - - 10 - - - -
21/10:00am 19.6 S 9 15 1021.9 - 0.0 - - 10 - - - -
21/09:30am 18.3 S 10 14 1022.0 - 0.0 - - 10 - - - -
21/09:00am 17.3 S 7 11 1022.2 - 0.0 - - 10 - - - -
21/08:30am 14.8 SSW 7 10 1022.2 - 0.0 - - 10 - - - -

Other Formats:

Comma delimited format used in spreadsheet applications
http://www.bom.gov.au/fwo/IDQ60701/IDQ60701.94387.axf

JavaScript Object Notation format (JSON) in row-major order
http://www.bom.gov.au/fwo/IDQ60701/IDQ60701.94387.json